createdAt,value
2019-03-22T00:02:01.007Z,30.05
2019-03-22T00:04:32.303Z,33.05
2019-03-22T00:07:03.558Z,28.65
2019-03-22T00:09:34.637Z,31.73
2019-03-22T00:12:06.090Z,27.95
2019-03-22T00:14:37.293Z,32.17
2019-03-22T00:17:08.494Z,27.55
2019-03-22T00:19:41.445Z,31.05
2019-03-22T00:22:12.754Z,28.40
2019-03-22T00:24:43.886Z,23.80
2019-03-22T00:27:16.736Z,27.05
2019-03-22T00:29:48.109Z,26.33
2019-03-22T00:32:19.124Z,28.02
2019-03-22T00:34:50.380Z,25.75
2019-03-22T00:37:21.423Z,29.50
2019-03-22T00:39:52.462Z,27.40
2019-03-22T00:42:23.516Z,27.45
2019-03-22T00:44:54.674Z,27.73
2019-03-22T00:47:25.820Z,28.77
2019-03-22T00:49:56.810Z,27.52
2019-03-22T00:52:27.975Z,29.15
2019-03-22T00:54:58.979Z,29.72
2019-03-22T00:57:30.174Z,30.60
2019-03-22T01:00:01.551Z,33.13
2019-03-22T01:02:32.783Z,33.15
2019-03-22T01:05:05.557Z,29.80
2019-03-22T01:07:36.692Z,36.15
2019-03-22T01:10:11.010Z,36.25
2019-03-22T01:12:42.158Z,35.60
2019-03-22T01:15:13.921Z,33.02
2019-03-22T01:17:46.923Z,37.70
2019-03-22T01:20:17.929Z,34.95
2019-03-22T01:22:49.079Z,31.02
2019-03-22T01:25:20.226Z,37.05
2019-03-22T01:27:51.301Z,33.50
2019-03-22T01:30:23.363Z,34.33
2019-03-22T01:32:54.404Z,41.33
2019-03-22T01:35:25.682Z,34.75
2019-03-22T01:37:56.800Z,30.80
2019-03-22T01:40:27.936Z,30.17
2019-03-22T01:42:59.106Z,34.30
2019-03-22T01:45:30.168Z,33.90
2019-03-22T01:48:01.271Z,31.77
2019-03-22T01:50:32.485Z,36.10
2019-03-22T01:53:03.624Z,36.60
2019-03-22T01:55:34.795Z,38.48
2019-03-22T01:58:06.109Z,41.20
2019-03-22T02:00:37.236Z,50.15
2019-03-22T02:03:08.393Z,39.67
2019-03-22T02:05:39.818Z,40.90
2019-03-22T02:08:11.043Z,39.88
2019-03-22T02:10:42.094Z,36.95
2019-03-22T02:13:13.271Z,37.90
2019-03-22T02:15:44.461Z,41.65
2019-03-22T02:18:15.604Z,42.98
2019-03-22T02:20:46.749Z,38.92
2019-03-22T02:23:17.916Z,46.13
2019-03-22T02:25:48.994Z,42.15
2019-03-22T02:28:20.137Z,43.33
2019-03-22T02:30:51.277Z,40.88
2019-03-22T02:33:22.398Z,43.02
2019-03-22T02:35:53.434Z,44.33
2019-03-22T02:38:24.529Z,47.25
2019-03-22T02:40:55.722Z,46.28
2019-03-22T02:43:26.758Z,50.25
2019-03-22T02:45:57.942Z,53.20
2019-03-22T02:48:30.172Z,58.28
2019-03-22T02:51:02.960Z,45.15
2019-03-22T02:53:34.174Z,74.03
2019-03-22T02:56:05.393Z,102.32
2019-03-22T02:58:38.297Z,95.95
2019-03-22T03:01:09.443Z,77.20
2019-03-22T03:03:40.523Z,94.00
2019-03-22T03:06:11.592Z,75.87
2019-03-22T03:08:42.765Z,70.22
2019-03-22T03:11:13.869Z,77.08
2019-03-22T03:13:44.892Z,73.05
2019-03-22T03:16:16.115Z,73.07
2019-03-22T03:18:48.362Z,86.72
2019-03-22T03:21:19.457Z,80.30
2019-03-22T03:23:50.606Z,102.47
2019-03-22T03:26:21.647Z,93.27
2019-03-22T03:28:52.695Z,92.40
2019-03-22T03:31:23.910Z,137.25
2019-03-22T03:33:54.913Z,187.62
2019-03-22T03:36:26.117Z,250.45
2019-03-22T03:38:57.211Z,275.95
2019-03-22T03:41:28.316Z,187.37
2019-03-22T03:44:00.410Z,176.93
2019-03-22T03:46:31.434Z,148.90
2019-03-22T03:49:02.607Z,124.33
2019-03-22T03:51:33.603Z,121.57
2019-03-22T03:54:04.675Z,120.55
2019-03-22T03:56:36.803Z,113.92
2019-03-22T03:59:07.854Z,115.80
2019-03-22T04:01:38.925Z,114.72
2019-03-22T04:04:10.012Z,114.08
2019-03-22T04:06:41.099Z,116.82
2019-03-22T04:09:12.149Z,118.20
2019-03-22T04:11:43.175Z,102.07
2019-03-22T04:14:14.160Z,110.90
2019-03-22T04:16:45.412Z,107.70
2019-03-22T04:19:16.715Z,101.67
2019-03-22T04:21:47.966Z,101.30
2019-03-22T04:24:19.213Z,96.35
2019-03-22T04:26:51.447Z,100.47
2019-03-22T04:29:22.630Z,99.77
2019-03-22T04:31:53.766Z,99.67
2019-03-22T04:34:24.823Z,98.42
2019-03-22T04:36:56.037Z,90.17
2019-03-22T04:39:28.208Z,93.90
2019-03-22T04:41:59.448Z,88.60
2019-03-22T04:44:30.462Z,88.42
2019-03-22T04:47:03.589Z,87.92
2019-03-22T04:49:34.886Z,87.50
2019-03-22T04:52:06.451Z,82.45
2019-03-22T04:54:38.669Z,77.05
2019-03-22T04:57:09.813Z,76.45
2019-03-22T04:59:40.922Z,87.53
2019-03-22T05:02:12.068Z,84.87
2019-03-22T05:04:43.401Z,74.65
2019-03-22T05:07:14.946Z,82.85
2019-03-22T05:09:46.591Z,81.10
2019-03-22T05:12:18.233Z,91.95
2019-03-22T05:14:49.440Z,108.50
2019-03-22T05:17:20.525Z,107.50
2019-03-22T05:19:51.914Z,103.65
2019-03-22T05:22:23.273Z,122.42
2019-03-22T05:24:54.472Z,109.20
2019-03-22T05:27:25.613Z,106.70
2019-03-22T05:29:57.876Z,116.40
2019-03-22T05:32:29.016Z,116.45
2019-03-22T05:35:00.076Z,115.72
2019-03-22T05:37:31.261Z,111.97
2019-03-22T05:40:02.504Z,104.27
2019-03-22T05:42:33.575Z,98.58
2019-03-22T05:45:06.585Z,99.92
2019-03-22T05:47:40.727Z,91.35
2019-03-22T05:50:11.783Z,78.22
2019-03-22T05:52:42.962Z,78.30
2019-03-22T05:55:14.286Z,74.85
2019-03-22T05:57:46.792Z,78.55
2019-03-22T06:00:18.528Z,72.10
2019-03-22T06:02:49.778Z,75.87
2019-03-22T06:05:21.969Z,75.57
2019-03-22T06:07:53.213Z,73.90
2019-03-22T06:10:24.298Z,75.83
2019-03-22T06:12:55.516Z,75.00
2019-03-22T06:15:26.649Z,75.57
2019-03-22T06:17:57.820Z,63.98
2019-03-22T06:20:28.979Z,60.58
2019-03-22T06:23:00.178Z,58.45
2019-03-22T06:25:31.280Z,56.95
2019-03-22T06:28:02.314Z,50.83
2019-03-22T06:30:33.598Z,53.95
2019-03-22T06:33:04.759Z,213.70
2019-03-22T06:35:36.923Z,52.15
2019-03-22T06:38:08.069Z,52.35
2019-03-22T06:40:39.311Z,52.73
2019-03-22T06:43:12.765Z,80.85
2019-03-22T06:45:43.849Z,55.60
2019-03-22T06:48:14.935Z,69.65
2019-03-22T06:50:47.071Z,48.52
2019-03-22T06:53:18.610Z,45.65
2019-03-22T06:55:49.889Z,51.75
2019-03-22T06:58:21.114Z,54.63
2019-03-22T07:00:53.422Z,54.13
2019-03-22T07:03:24.418Z,48.33
2019-03-22T07:05:55.451Z,125.18
2019-03-22T07:08:28.160Z,60.43
2019-03-22T07:10:59.305Z,52.65
2019-03-22T07:13:32.295Z,46.85
2019-03-22T07:16:03.679Z,54.60
2019-03-22T07:18:34.911Z,53.08
2019-03-22T07:21:06.039Z,55.43
2019-03-22T07:23:37.198Z,51.80
2019-03-22T07:26:08.192Z,55.10
2019-03-22T07:28:39.433Z,56.35
2019-03-22T07:31:10.543Z,47.95
2019-03-22T07:33:43.879Z,54.48
2019-03-22T07:36:15.350Z,55.63
2019-03-22T07:38:46.594Z,52.27
2019-03-22T07:41:17.726Z,48.50
2019-03-22T07:43:48.979Z,51.90
2019-03-22T07:46:20.125Z,54.20
2019-03-22T07:48:51.467Z,49.33
2019-03-22T07:51:22.551Z,50.15
2019-03-22T07:53:53.772Z,53.13
2019-03-22T07:56:24.883Z,46.00
2019-03-22T07:58:56.929Z,46.90
2019-03-22T08:01:28.716Z,48.15
2019-03-22T08:03:59.822Z,46.75
2019-03-22T08:06:31.221Z,40.85
2019-03-22T08:09:02.518Z,42.23
2019-03-22T08:11:34.471Z,43.02
2019-03-22T08:14:05.520Z,41.65
2019-03-22T08:16:36.741Z,38.02
2019-03-22T08:19:07.919Z,40.52
2019-03-22T08:21:39.104Z,33.92
2019-03-22T08:24:10.409Z,32.67
2019-03-22T08:26:41.762Z,42.60
2019-03-22T08:29:13.042Z,36.05
2019-03-22T08:31:44.329Z,36.42
2019-03-22T08:34:15.589Z,35.48
2019-03-22T08:36:46.782Z,34.08
2019-03-22T08:39:18.110Z,33.33
2019-03-22T08:41:49.258Z,31.40
2019-03-22T08:44:20.341Z,29.92
2019-03-22T08:46:51.684Z,28.50
2019-03-22T08:49:24.449Z,26.90
2019-03-22T08:51:55.664Z,30.02
2019-03-22T08:54:26.997Z,27.02
2019-03-22T08:56:58.191Z,25.77
2019-03-22T08:59:29.259Z,37.83
2019-03-22T09:02:00.748Z,26.20
2019-03-22T09:04:32.041Z,28.55
2019-03-22T09:07:03.221Z,146.82
2019-03-22T09:09:41.350Z,26.17
2019-03-22T09:12:07.756Z,23.80
2019-03-22T09:14:38.967Z,27.22
2019-03-22T09:17:10.175Z,24.10
2019-03-22T09:19:41.341Z,23.45
2019-03-22T09:22:12.438Z,20.12
2019-03-22T09:24:45.369Z,38.50
2019-03-22T09:27:17.550Z,25.17
2019-03-22T09:29:48.754Z,29.90
2019-03-22T09:32:19.962Z,25.68
2019-03-22T09:34:51.229Z,23.90
2019-03-22T09:37:22.380Z,21.02
2019-03-22T09:39:53.584Z,25.17
2019-03-22T09:42:24.886Z,38.33
2019-03-22T09:44:55.959Z,25.32
2019-03-22T09:47:26.989Z,25.08
2019-03-22T09:49:58.139Z,24.57
2019-03-22T09:52:30.349Z,25.77
2019-03-22T09:55:12.457Z,22.50
2019-03-22T09:57:34.568Z,24.02
2019-03-22T10:00:08.579Z,26.40
2019-03-22T10:02:40.198Z,31.82
2019-03-22T10:05:11.379Z,32.00
2019-03-22T10:07:42.621Z,28.80
2019-03-22T10:10:14.462Z,28.55
2019-03-22T10:12:46.011Z,40.78
2019-03-22T10:15:17.392Z,31.42
2019-03-22T10:17:48.629Z,36.00
2019-03-22T10:20:19.744Z,29.02
2019-03-22T10:22:51.545Z,27.37
2019-03-22T10:25:22.588Z,27.45
2019-03-22T10:27:54.744Z,44.60
2019-03-22T10:30:26.531Z,35.70
2019-03-22T10:32:57.620Z,43.78
2019-03-22T10:35:28.798Z,34.60
2019-03-22T10:38:01.146Z,33.05
2019-03-22T10:40:33.163Z,28.10
2019-03-22T10:43:04.200Z,42.93
2019-03-22T10:45:35.250Z,37.25
2019-03-22T10:48:06.420Z,35.20
2019-03-22T10:50:37.606Z,39.15
2019-03-22T10:53:08.873Z,43.63
2019-03-22T10:55:39.976Z,44.90
2019-03-22T10:58:21.007Z,29.80
2019-03-22T11:00:43.814Z,32.78
2019-03-22T11:03:15.012Z,26.12
2019-03-22T11:05:46.352Z,36.68
2019-03-22T11:08:17.564Z,24.65
2019-03-22T11:10:48.742Z,24.10
2019-03-22T11:13:22.872Z,26.30
2019-03-22T11:15:54.074Z,28.57
2019-03-22T11:18:25.079Z,33.50
2019-03-22T11:21:04.764Z,59.58
2019-03-22T11:23:29.129Z,33.15
2019-03-22T11:26:04.135Z,28.32
2019-03-22T11:28:33.075Z,25.77
2019-03-22T11:31:05.063Z,24.45
2019-03-22T11:33:37.433Z,27.07
2019-03-22T11:36:08.774Z,28.23
2019-03-22T11:38:40.021Z,21.10
2019-03-22T11:41:11.127Z,29.52
2019-03-22T11:43:42.261Z,28.73
2019-03-22T11:46:14.333Z,23.32
2019-03-22T11:48:45.376Z,27.45
2019-03-22T11:51:16.939Z,34.55
2019-03-22T11:53:49.092Z,28.65
2019-03-22T11:56:20.223Z,26.50
2019-03-22T11:58:52.418Z,29.23
2019-03-22T12:01:23.675Z,25.65
2019-03-22T12:03:54.714Z,29.75
2019-03-22T12:06:27.375Z,28.07
2019-03-22T12:09:00.189Z,34.78
2019-03-22T12:11:31.234Z,25.02
2019-03-22T12:14:02.406Z,30.97
2019-03-22T12:16:33.524Z,28.25
2019-03-22T12:19:04.744Z,27.05
2019-03-22T12:21:35.789Z,29.40
2019-03-22T12:24:06.961Z,27.70
2019-03-22T12:26:38.077Z,27.62
2019-03-22T12:29:09.286Z,29.18
2019-03-22T12:31:40.500Z,28.77
2019-03-22T12:34:11.938Z,21.05
2019-03-22T12:36:43.216Z,28.35
2019-03-22T12:39:16.611Z,23.87
2019-03-22T12:41:47.722Z,22.70
2019-03-22T12:44:19.031Z,24.05
2019-03-22T12:46:50.109Z,24.57
2019-03-22T12:49:22.429Z,26.68
2019-03-22T12:51:53.639Z,30.72
2019-03-22T12:54:24.701Z,25.35
2019-03-22T12:56:56.054Z,29.35
2019-03-22T12:59:28.405Z,36.58
2019-03-22T13:02:00.693Z,28.52
2019-03-22T13:04:32.054Z,24.82
2019-03-22T13:07:03.365Z,32.30
2019-03-22T13:09:37.352Z,28.90
2019-03-22T13:12:08.449Z,33.35
2019-03-22T13:14:39.632Z,31.57
2019-03-22T13:17:10.716Z,34.40
2019-03-22T13:19:43.525Z,36.28
2019-03-22T13:22:14.673Z,32.03
2019-03-22T13:24:45.846Z,32.25
2019-03-22T13:27:17.102Z,38.50
2019-03-22T13:29:48.227Z,31.60
2019-03-22T13:32:19.498Z,32.58
2019-03-22T13:34:50.687Z,36.42
2019-03-22T13:37:21.858Z,34.20
2019-03-22T13:39:53.196Z,39.63
2019-03-22T13:42:24.402Z,38.50
2019-03-22T13:44:55.567Z,41.65
2019-03-22T13:47:26.812Z,46.40
2019-03-22T13:49:57.943Z,49.67
2019-03-22T13:52:31.781Z,34.23
2019-03-22T13:55:03.227Z,50.25
2019-03-22T13:57:35.273Z,35.23
2019-03-22T14:00:11.613Z,42.03
2019-03-22T14:02:42.587Z,32.13
2019-03-22T14:05:13.891Z,34.83
2019-03-22T14:07:45.044Z,30.00
2019-03-22T14:10:19.443Z,33.53
2019-03-22T14:12:51.547Z,36.08
2019-03-22T14:15:22.651Z,35.23
2019-03-22T14:17:53.708Z,33.35
2019-03-22T14:20:25.006Z,41.10
2019-03-22T14:22:56.286Z,32.78
2019-03-22T14:25:27.517Z,35.65
2019-03-22T14:27:58.637Z,38.95
2019-03-22T14:30:29.950Z,40.43
2019-03-22T14:33:01.214Z,36.53
2019-03-22T14:35:32.437Z,39.05
2019-03-22T14:38:03.517Z,42.80
2019-03-22T14:40:34.663Z,42.38
2019-03-22T14:43:06.262Z,49.40
2019-03-22T14:45:37.695Z,63.33
2019-03-22T14:48:08.960Z,97.22
2019-03-22T14:50:40.160Z,104.00
2019-03-22T14:53:11.379Z,88.52
2019-03-22T14:55:42.695Z,72.53
2019-03-22T14:58:13.831Z,61.90
2019-03-22T15:00:45.027Z,60.05
2019-03-22T15:03:26.483Z,51.55
2019-03-22T15:05:57.740Z,47.10
2019-03-22T15:08:28.885Z,40.17
2019-03-22T15:11:01.207Z,39.90
2019-03-22T15:13:37.445Z,37.53
2019-03-22T15:16:16.497Z,33.08
2019-03-22T15:18:51.886Z,39.27
2019-03-22T15:21:27.741Z,35.23
2019-03-22T15:24:06.497Z,37.45
2019-03-22T15:26:46.893Z,37.98
2019-03-22T15:29:31.926Z,41.10
2019-03-22T15:32:04.839Z,33.83
2019-03-22T15:34:42.438Z,36.38
2019-03-22T15:37:18.321Z,39.08
2019-03-22T15:40:00.995Z,36.53
2019-03-22T15:42:33.450Z,35.50
2019-03-22T15:45:07.641Z,33.15
2019-03-22T15:47:40.047Z,37.75
2019-03-22T15:50:13.401Z,40.67
2019-03-22T15:52:44.465Z,37.50
2019-03-22T15:55:16.779Z,39.18
2019-03-22T15:57:48.004Z,36.88
2019-03-22T16:00:19.239Z,39.58
2019-03-22T16:02:50.461Z,37.70
2019-03-22T16:05:21.684Z,40.45
2019-03-22T16:07:53.051Z,57.15
2019-03-22T16:10:24.292Z,23.27
2019-03-22T16:12:55.575Z,12.20
2019-03-22T16:15:26.819Z,10.05
2019-03-22T16:17:58.158Z,5.70
2019-03-22T16:20:29.122Z,3.52
2019-03-22T16:23:00.169Z,6.00
2019-03-22T16:25:31.261Z,5.53
2019-03-22T16:28:02.301Z,3.83
2019-03-22T16:30:35.010Z,3.47
2019-03-22T16:33:06.133Z,6.15
2019-03-22T16:35:37.341Z,3.65
2019-03-22T16:38:08.461Z,6.25
2019-03-22T16:40:39.424Z,5.97
2019-03-22T16:43:10.548Z,7.05
2019-03-22T16:45:42.310Z,9.05
2019-03-22T16:48:13.526Z,9.00
2019-03-22T16:50:44.505Z,8.63
2019-03-22T16:53:15.382Z,7.08
2019-03-22T16:55:46.358Z,4.75
2019-03-22T16:58:17.317Z,6.53
2019-03-22T17:00:49.917Z,6.55
2019-03-22T17:03:21.090Z,8.18
2019-03-22T17:05:52.116Z,8.98
2019-03-22T17:08:23.091Z,10.60
2019-03-22T17:10:54.181Z,9.53
2019-03-22T17:13:25.299Z,7.87
2019-03-22T17:15:56.432Z,7.67
2019-03-22T17:18:27.431Z,8.25
2019-03-22T17:20:58.527Z,9.08
2019-03-22T17:23:29.731Z,7.30
2019-03-22T17:26:00.655Z,8.73
2019-03-22T17:28:31.795Z,10.23
2019-03-22T17:31:03.934Z,9.15
2019-03-22T17:33:34.943Z,9.18
2019-03-22T17:36:05.956Z,13.80
2019-03-22T17:38:37.195Z,8.95
2019-03-22T17:41:08.096Z,8.70
2019-03-22T17:43:39.145Z,7.85
2019-03-22T17:46:10.090Z,7.60
2019-03-22T17:48:41.403Z,8.83
2019-03-22T17:51:12.421Z,9.70
2019-03-22T17:53:43.552Z,8.83
2019-03-22T17:56:14.551Z,6.65
2019-03-22T17:58:45.484Z,8.45
2019-03-22T18:01:16.704Z,6.67
2019-03-22T18:03:47.912Z,8.53
2019-03-22T18:06:18.857Z,8.28
2019-03-22T18:08:49.958Z,8.90
2019-03-22T18:11:21.099Z,10.78
2019-03-22T18:13:52.275Z,9.38
2019-03-22T18:16:23.260Z,9.68
2019-03-22T18:18:55.835Z,7.97
2019-03-22T18:21:26.725Z,7.83
2019-03-22T18:23:57.777Z,10.38
2019-03-22T18:26:28.943Z,7.92
2019-03-22T18:29:00.001Z,8.35
2019-03-22T18:31:30.949Z,6.60
2019-03-22T18:34:02.001Z,12.13
2019-03-22T18:36:33.261Z,6.10
2019-03-22T18:39:06.172Z,7.42
2019-03-22T18:41:38.342Z,5.47
2019-03-22T18:44:09.424Z,5.35
2019-03-22T18:46:41.383Z,32.93
2019-03-22T18:49:12.426Z,4.33
2019-03-22T18:51:43.561Z,5.25
2019-03-22T18:54:15.472Z,5.97
2019-03-22T18:56:46.492Z,6.80
2019-03-22T18:59:17.635Z,5.25
2019-03-22T19:01:48.661Z,5.87
2019-03-22T19:04:19.696Z,9.25
2019-03-22T19:06:50.805Z,6.87
2019-03-22T19:09:23.949Z,10.35
2019-03-22T19:11:55.074Z,11.65
2019-03-22T19:14:26.241Z,12.58
2019-03-22T19:16:57.354Z,11.70
2019-03-22T19:19:28.448Z,9.90
2019-03-22T19:21:59.436Z,9.28
2019-03-22T19:26:52.813Z,9.80
2019-03-22T19:29:23.781Z,8.48
2019-03-22T19:31:55.104Z,6.10
2019-03-22T19:34:26.151Z,7.42
2019-03-22T19:36:57.093Z,8.28
2019-03-22T19:39:28.237Z,6.55
2019-03-22T19:41:59.268Z,8.45
2019-03-22T19:44:30.234Z,8.70
2019-03-22T19:47:01.373Z,9.25
2019-03-22T19:49:32.390Z,7.90
2019-03-22T19:52:03.468Z,13.40
2019-03-22T19:54:34.566Z,8.88
2019-03-22T19:57:05.824Z,10.20
2019-03-22T19:59:38.319Z,6.55
2019-03-22T20:02:09.358Z,5.20
2019-03-22T20:04:40.620Z,6.10
2019-03-22T20:07:11.596Z,8.38
2019-03-22T20:09:44.253Z,7.35
2019-03-22T20:12:16.347Z,6.85
2019-03-22T20:14:47.215Z,7.90
2019-03-22T20:17:18.552Z,7.80
2019-03-22T20:19:49.684Z,6.17
2019-03-22T20:22:20.742Z,5.90
2019-03-22T20:24:51.824Z,5.97
2019-03-22T20:27:22.923Z,7.40
2019-03-22T20:29:54.265Z,5.33
2019-03-22T20:32:25.356Z,6.30
2019-03-22T20:34:56.626Z,6.83
2019-03-22T20:37:27.784Z,6.78
2019-03-22T20:39:58.758Z,6.65
2019-03-22T20:42:29.994Z,7.65
2019-03-22T20:45:00.911Z,9.43
2019-03-22T20:47:32.177Z,12.23
2019-03-22T20:50:05.885Z,9.55
2019-03-22T20:52:36.938Z,6.70
2019-03-22T20:55:08.825Z,6.87
2019-03-22T20:57:39.910Z,8.05
2019-03-22T21:00:15.676Z,5.78
2019-03-22T21:02:46.955Z,6.72
2019-03-22T21:05:26.457Z,5.72
2019-03-22T21:07:50.848Z,6.78
2019-03-22T21:10:22.099Z,7.65
2019-03-22T21:12:53.291Z,11.30
2019-03-22T21:15:24.965Z,14.45
2019-03-22T21:17:56.143Z,16.93
2019-03-22T21:20:27.236Z,12.78
2019-03-22T21:22:58.520Z,11.83
2019-03-22T21:25:29.917Z,9.20
2019-03-22T21:28:01.078Z,9.33
2019-03-22T21:30:32.067Z,9.58
2019-03-22T21:33:03.095Z,6.75
2019-03-22T21:35:37.543Z,7.47
2019-03-22T21:38:10.993Z,9.60
2019-03-22T21:40:39.700Z,6.95
2019-03-22T21:43:11.845Z,6.25
2019-03-22T21:45:43.015Z,10.40
2019-03-22T21:48:14.208Z,8.10
2019-03-22T21:50:45.298Z,6.00
2019-03-22T21:53:17.137Z,8.70
2019-03-22T21:55:48.242Z,7.47
2019-03-22T21:58:19.151Z,8.70
2019-03-22T22:00:50.036Z,9.03
2019-03-22T22:03:21.196Z,6.28
2019-03-22T22:05:52.206Z,12.68
2019-03-22T22:08:23.498Z,9.38
2019-03-22T22:11:00.053Z,9.65
2019-03-22T22:13:28.882Z,15.75
2019-03-22T22:16:00.140Z,15.40
2019-03-22T22:18:31.282Z,13.58
2019-03-22T22:21:02.388Z,14.87
2019-03-22T22:23:33.565Z,10.78
2019-03-22T22:26:04.644Z,13.62
2019-03-22T22:28:35.756Z,12.18
2019-03-22T22:31:06.942Z,16.95
2019-03-22T22:33:38.137Z,10.70
2019-03-22T22:36:09.332Z,10.50
2019-03-22T22:38:40.494Z,8.08
2019-03-22T22:41:11.566Z,10.00
2019-03-22T22:43:42.995Z,8.55
2019-03-22T22:46:13.888Z,13.30
2019-03-22T22:48:45.034Z,18.42
2019-03-22T22:51:16.235Z,23.45
2019-03-22T22:53:47.303Z,30.95
2019-03-22T22:56:18.932Z,30.02
2019-03-22T22:58:51.053Z,21.80
2019-03-22T23:01:23.204Z,20.12
2019-03-22T23:03:54.331Z,15.85
2019-03-22T23:06:25.445Z,10.32
2019-03-22T23:08:56.680Z,11.22
2019-03-22T23:11:27.870Z,8.28
2019-03-22T23:13:58.989Z,7.08
2019-03-22T23:16:31.167Z,6.95
2019-03-22T23:19:02.267Z,7.95
2019-03-22T23:21:33.227Z,8.53
2019-03-22T23:24:04.294Z,10.35
2019-03-22T23:26:35.420Z,7.00
2019-03-22T23:29:06.552Z,6.72
2019-03-22T23:31:39.306Z,5.92
2019-03-22T23:34:11.314Z,3.60
2019-03-22T23:36:43.998Z,7.12
2019-03-22T23:39:15.087Z,4.45
2019-03-22T23:41:46.064Z,4.47
2019-03-22T23:44:17.290Z,4.28
2019-03-22T23:46:48.478Z,6.08
2019-03-22T23:49:19.664Z,5.03
2019-03-22T23:51:50.728Z,5.05
2019-03-22T23:54:21.672Z,9.88
2019-03-22T23:56:52.634Z,6.37
2019-03-22T23:59:23.700Z,6.08
